Time;durP1;ratioP1;P1;durP2;ratioP2;P2;SDS_P1;SDS_P2;PMS_P1;PMS_P2;Temp;Humidity;BMP_temperature;BMP_pressure;BME280_temperature;BME280_humidity;BME280_pressure;Samples;Min_cycle;Max_cycle;Signal;HPM_P1;HPM_P2
2022/02/24 00:00:05;;;;;;;;;;;;;;;;;;5086718;28;19909;-85
2022/02/24 00:02:31;;;;;;;;;;;;;;;;;;5087046;28;20356;-84
2022/02/24 00:04:56;;;;;;;;;;;;;;;;;;5086961;28;19912;-85
2022/02/24 00:07:21;;;;;;;;;;;;;;;;;;5086648;28;19909;-85
2022/02/24 00:09:46;;;;;;;;;;;;;;;;;;5086491;28;20378;-85
2022/02/24 00:12:11;;;;;;;;;;;;;;;;;;5086664;28;19908;-84
2022/02/24 00:14:36;;;;;;;;;;;;;;;;;;5054370;28;19955;-85
2022/02/24 00:17:02;;;;;;;;;;;;;;;;;;5086552;28;19909;-84
2022/02/24 00:19:27;;;;;;;;;;;;;;;;;;5086478;28;19913;-85
2022/02/24 00:21:52;;;;;;;;;;;;;;;;;;5086461;28;19913;-85
2022/02/24 00:24:17;;;;;;;;;;;;;;;;;;5086609;28;19912;-85
2022/02/24 00:26:42;;;;;;;;;;;;;;;;;;5086396;28;19912;-84
2022/02/24 00:29:07;;;;;;;;;;;;;;;;;;5086359;28;19909;-85
2022/02/24 00:31:32;;;;;;;;;;;;;;;;;;5054269;28;19909;-85
2022/02/24 00:33:57;;;;;;;;;;;;;;;;;;5054010;28;19920;-85
2022/02/24 00:36:22;;;;;;;;;;;;;;;;;;5086170;28;19916;-85
2022/02/24 00:38:47;;;;;;;;;;;;;;;;;;5085990;28;19909;-85
2022/02/24 00:41:13;;;;;;;;;;;;;;;;;;5086174;28;19960;-85
2022/02/24 00:43:38;;;;;;;;;;;;;;;;;;5086186;28;20386;-85
2022/02/24 00:46:03;;;;;;;;;;;;;;;;;;5085940;28;20000;-85
2022/02/24 00:48:28;;;;;;;;;;;;;;;;;;5053609;28;20012;-85
2022/02/24 00:50:53;;;;;;;;;;;;;;;;;;5053760;28;19964;-85
2022/02/24 00:53:18;;;;;;;;;;;;;;;;;;5053415;28;20015;-85
2022/02/24 00:55:44;;;;;;;;;;;;;;;;;;5085698;28;20267;-85
2022/02/24 00:58:09;;;;;;;;;;;;;;;;;;5085849;28;19917;-85
2022/02/24 01:00:34;;;;;;;;;;;;;;;;;;5053339;28;19967;-85
2022/02/24 01:02:59;;;;;;;;;;;;;;;;;;5084756;28;20026;-85
2022/02/24 01:05:24;;;;;;;;;;;;;;;;;;5085780;28;19978;-84
2022/02/24 01:07:49;;;;;;;;;;;;;;;;;;5085601;28;19912;-84
2022/02/24 01:10:14;;;;;;;;;;;;;;;;;;5085388;28;20315;-84
2022/02/24 01:12:39;;;;;;;;;;;;;;;;;;5085362;28;20364;-85
2022/02/24 01:15:06;;;;;;;;;;;;;;;;;;5085371;28;19909;-85
2022/02/24 01:17:31;;;;;;;;;;;;;;;;;;5085334;28;20276;-85
2022/02/24 01:19:56;;;;;;;;;;;;;;;;;;5085188;28;20357;-85
2022/02/24 01:22:22;;;;;;;;;;;;;;;;;;5085107;28;19913;-84
2022/02/24 01:24:47;;;;;;;;;;;;;;;;;;5085555;28;19913;-85
2022/02/24 01:27:12;;;;;;;;;;;;;;;;;;5085347;28;19913;-85
2022/02/24 01:29:37;;;;;;;;;;;;;;;;;;5085003;28;19909;-85
2022/02/24 01:32:02;;;;;;;;;;;;;;;;;;5085073;28;20423;-84
2022/02/24 01:34:27;;;;;;;;;;;;;;;;;;5052566;28;20018;-85
2022/02/24 01:36:52;;;;;;;;;;;;;;;;;;5059110;28;19966;-84
2022/02/24 01:39:17;;;;;;;;;;;;;;;;;;5085152;28;20268;-84
2022/02/24 01:41:42;;;;;;;;;;;;;;;;;;5053008;28;19927;-85
2022/02/24 01:44:08;;;;;;;;;;;;;;;;;;5052630;28;19928;-85
2022/02/24 01:46:33;;;;;;;;;;;;;;;;;;5084860;28;19913;-85
2022/02/24 01:48:58;;;;;;;;;;;;;;;;;;5052402;28;20404;-84
2022/02/24 01:51:23;;;;;;;;;;;;;;;;;;5084944;28;20020;-85
2022/02/24 01:53:49;;;;;;;;;;;;;;;;;;5085097;28;19962;-85
2022/02/24 01:56:14;;;;;;;;;;;;;;;;;;5085112;28;19909;-84
2022/02/24 01:58:39;;;;;;;;;;;;;;;;;;5084559;28;20003;-84
2022/02/24 02:01:04;;;;;;;;;;;;;;;;;;5084898;28;19934;-85
2022/02/24 02:03:29;;;;;;;;;;;;;;;;;;5084882;28;19915;-84
2022/02/24 02:05:54;;;;;;;;;;;;;;;;;;5085074;28;20415;-84
2022/02/24 02:08:19;;;;;;;;;;;;;;;;;;5051837;28;20356;-84
2022/02/24 02:10:44;;;;;;;;;;;;;;;;;;5084170;28;19909;-84
2022/02/24 02:13:09;;;;;;;;;;;;;;;;;;5085265;28;19985;-84
2022/02/24 02:15:34;;;;;;;;;;;;;;;;;;5088706;28;20369;-84
2022/02/24 02:18:00;;;;;;;;;;;;;;;;;;5088681;28;19915;-84
2022/02/24 02:20:25;;;;;;;;;;;;;;;;;;5056509;28;19923;-84
2022/02/24 02:22:50;;;;;;;;;;;;;;;;;;5088742;28;19958;-84
2022/02/24 02:25:20;;;;;;;;;;;;;;;;;;5056287;28;20280;-85
2022/02/24 02:27:45;;;;;;;;;;;;;;;;;;5089078;28;19916;-84
2022/02/24 02:30:10;;;;;;;;;;;;;;;;;;5088458;28;19913;-84
2022/02/24 02:32:35;;;;;;;;;;;;;;;;;;5088650;28;19912;-84
2022/02/24 02:35:00;;;;;;;;;;;;;;;;;;5088456;28;19916;-84
2022/02/24 02:37:25;;;;;;;;;;;;;;;;;;5056118;28;19909;-84
2022/02/24 02:39:51;;;;;;;;;;;;;;;;;;5087436;28;19924;-84
2022/02/24 02:42:16;;;;;;;;;;;;;;;;;;5088016;28;19959;-84
2022/02/24 02:44:44;;;;;;;;;;;;;;;;;;5088005;28;19920;-84
2022/02/24 02:47:09;;;;;;;;;;;;;;;;;;5087957;28;19921;-85
2022/02/24 02:49:34;;;;;;;;;;;;;;;;;;5055326;28;19915;-84
2022/02/24 02:51:59;;;;;;;;;;;;;;;;;;5087974;28;19916;-85
2022/02/24 02:54:24;;;;;;;;;;;;;;;;;;5088137;28;19916;-84
2022/02/24 02:56:51;;;;;;;;;;;;;;;;;;5087725;28;19920;-85
2022/02/24 02:59:17;;;;;;;;;;;;;;;;;;5087330;28;19909;-84
2022/02/24 03:01:42;;;;;;;;;;;;;;;;;;5087385;28;20360;-84
2022/02/24 03:04:07;;;;;;;;;;;;;;;;;;5087901;28;19959;-84
2022/02/24 03:06:32;;;;;;;;;;;;;;;;;;5087938;28;19970;-84
2022/02/24 03:08:58;;;;;;;;;;;;;;;;;;5087794;28;19915;-84
2022/02/24 03:11:23;;;;;;;;;;;;;;;;;;5087943;28;19909;-84
2022/02/24 03:13:48;;;;;;;;;;;;;;;;;;5055194;28;19940;-84
2022/02/24 03:16:13;;;;;;;;;;;;;;;;;;5087325;28;19916;-84
2022/02/24 03:18:38;;;;;;;;;;;;;;;;;;5087202;28;20018;-84
2022/02/24 03:21:03;;;;;;;;;;;;;;;;;;5087416;28;19935;-84
2022/02/24 03:23:28;;;;;;;;;;;;;;;;;;5087366;28;19979;-84
2022/02/24 03:25:53;;;;;;;;;;;;;;;;;;5086568;28;20504;-84
2022/02/24 03:28:18;;;;;;;;;;;;;;;;;;5087225;28;20003;-84
2022/02/24 03:30:43;;;;;;;;;;;;;;;;;;5087251;28;19999;-84
2022/02/24 03:33:09;;;;;;;;;;;;;;;;;;5087406;28;19913;-84
2022/02/24 03:35:34;;;;;;;;;;;;;;;;;;5087455;28;19916;-84
2022/02/24 03:37:59;;;;;;;;;;;;;;;;;;5086881;28;20340;-84
2022/02/24 03:40:24;;;;;;;;;;;;;;;;;;5087110;28;19924;-84
2022/02/24 03:42:49;;;;;;;;;;;;;;;;;;5086830;28;19916;-84
2022/02/24 03:45:14;;;;;;;;;;;;;;;;;;5086706;28;19913;-84
2022/02/24 03:47:39;;;;;;;;;;;;;;;;;;5086957;28;19920;-84
2022/02/24 03:50:04;;;;;;;;;;;;;;;;;;5086564;28;19909;-84
2022/02/24 03:52:30;;;;;;;;;;;;;;;;;;5086629;28;19916;-84
2022/02/24 03:54:55;;;;;;;;;;;;;;;;;;5086780;28;20380;-84
2022/02/24 03:57:20;;;;;;;;;;;;;;;;;;5054388;28;19918;-84
2022/02/24 03:59:45;;;;;;;;;;;;;;;;;;5086584;28;19931;-84
2022/02/24 04:02:10;;;;;;;;;;;;;;;;;;5086808;28;20023;-84
2022/02/24 04:04:35;;;;;;;;;;;;;;;;;;5086569;28;20007;-84
2022/02/24 04:07:00;;;;;;;;;;;;;;;;;;5086773;28;19912;-84
2022/02/24 04:09:25;;;;;;;;;;;;;;;;;;5054138;28;19971;-84
2022/02/24 04:11:50;;;;;;;;;;;;;;;;;;5054493;28;20387;-84
2022/02/24 04:14:16;;;;;;;;;;;;;;;;;;5086545;28;19956;-84
2022/02/24 04:16:41;;;;;;;;;;;;;;;;;;5053913;28;19916;-84
2022/02/24 04:19:06;;;;;;;;;;;;;;;;;;5085858;28;19956;-84
2022/02/24 04:21:31;;;;;;;;;;;;;;;;;;5086074;28;20003;-84
2022/02/24 04:23:56;;;;;;;;;;;;;;;;;;5086614;28;19909;-84
2022/02/24 04:26:21;;;;;;;;;;;;;;;;;;5086539;28;19909;-84
2022/02/24 04:28:46;;;;;;;;;;;;;;;;;;5086212;28;19908;-84
2022/02/24 04:31:11;;;;;;;;;;;;;;;;;;5086078;28;20280;-84
2022/02/24 04:33:36;;;;;;;;;;;;;;;;;;5053809;28;19912;-84
2022/02/24 04:36:01;;;;;;;;;;;;;;;;;;5085776;28;19920;-84
2022/02/24 04:38:27;;;;;;;;;;;;;;;;;;5086119;28;19908;-84
2022/02/24 04:40:52;;;;;;;;;;;;;;;;;;5053580;28;19917;-84
2022/02/24 04:43:17;;;;;;;;;;;;;;;;;;5086091;28;19916;-84
2022/02/24 04:45:42;;;;;;;;;;;;;;;;;;5086052;28;20383;-84
2022/02/24 04:48:07;;;;;;;;;;;;;;;;;;5085553;28;20395;-84
2022/02/24 04:50:32;;;;;;;;;;;;;;;;;;5085922;28;19916;-84
2022/02/24 04:52:57;;;;;;;;;;;;;;;;;;5085802;28;19905;-84
2022/02/24 04:55:22;;;;;;;;;;;;;;;;;;5086074;28;19955;-84
2022/02/24 04:57:48;;;;;;;;;;;;;;;;;;5085317;28;19955;-84
2022/02/24 05:00:13;;;;;;;;;;;;;;;;;;5085022;28;19920;-84
2022/02/24 05:02:38;;;;;;;;;;;;;;;;;;5085313;28;19917;-84
2022/02/24 05:05:03;;;;;;;;;;;;;;;;;;5085661;28;19909;-84
2022/02/24 05:07:28;;;;;;;;;;;;;;;;;;5085464;28;19908;-84
2022/02/24 05:09:53;;;;;;;;;;;;;;;;;;5085442;28;19962;-84
2022/02/24 05:12:18;;;;;;;;;;;;;;;;;;5085824;28;20276;-84
2022/02/24 05:14:43;;;;;;;;;;;;;;;;;;5085472;28;19916;-84
2022/02/24 05:17:09;;;;;;;;;;;;;;;;;;5085318;28;19912;-83
2022/02/24 05:19:34;;;;;;;;;;;;;;;;;;5084992;28;19913;-84
2022/02/24 05:21:59;;;;;;;;;;;;;;;;;;5085037;28;19913;-84
2022/02/24 05:24:24;;;;;;;;;;;;;;;;;;5085432;28;20340;-84
2022/02/24 05:26:49;;;;;;;;;;;;;;;;;;5085112;28;19913;-84
2022/02/24 05:29:14;;;;;;;;;;;;;;;;;;5084978;28;20007;-84
2022/02/24 05:31:39;;;;;;;;;;;;;;;;;;5085402;28;20327;-84
2022/02/24 05:34:04;;;;;;;;;;;;;;;;;;5085265;28;19916;-84
2022/02/24 05:36:29;;;;;;;;;;;;;;;;;;5085105;28;19909;-84
2022/02/24 05:38:55;;;;;;;;;;;;;;;;;;5084806;28;19912;-84
2022/02/24 05:41:20;;;;;;;;;;;;;;;;;;5084704;28;20281;-84
2022/02/24 05:43:46;;;;;;;;;;;;;;;;;;5084680;28;19962;-84
2022/02/24 05:46:11;;;;;;;;;;;;;;;;;;5084497;28;20372;-84
2022/02/24 05:48:36;;;;;;;;;;;;;;;;;;5084019;28;19909;-84
2022/02/24 05:51:01;;;;;;;;;;;;;;;;;;5084656;28;19908;-84
2022/02/24 05:53:26;;;;;;;;;;;;;;;;;;5084758;28;19909;-84
2022/02/24 05:55:52;;;;;;;;;;;;;;;;;;5084758;28;19909;-84
2022/02/24 05:58:17;;;;;;;;;;;;;;;;;;5084558;28;19920;-84
2022/02/24 06:00:42;;;;;;;;;;;;;;;;;;5084880;28;19962;-84
2022/02/24 06:03:07;;;;;;;;;;;;;;;;;;5084748;28;19996;-84
2022/02/24 06:05:32;;;;;;;;;;;;;;;;;;5084466;28;20391;-84
2022/02/24 06:07:57;;;;;;;;;;;;;;;;;;5084592;28;20387;-84
2022/02/24 06:10:22;;;;;;;;;;;;;;;;;;5052483;28;19999;-84
2022/02/24 06:12:47;;;;;;;;;;;;;;;;;;5084871;28;19909;-84
2022/02/24 06:15:13;;;;;;;;;;;;;;;;;;5084721;28;19912;-84
2022/02/24 06:17:39;;;;;;;;;;;;;;;;;;5051936;28;20482;-84
2022/02/24 06:20:04;;;;;;;;;;;;;;;;;;5052272;28;20003;-84
2022/02/24 06:22:29;;;;;;;;;;;;;;;;;;5084332;28;19917;-84
2022/02/24 06:24:54;;;;;;;;;;;;;;;;;;5084325;28;19932;-84
2022/02/24 06:27:19;;;;;;;;;;;;;;;;;;5084301;28;19920;-84
2022/02/24 06:29:44;;;;;;;;;;;;;;;;;;5084448;28;20389;-84
2022/02/24 06:32:09;;;;;;;;;;;;;;;;;;5084497;28;19945;-84
2022/02/24 06:34:34;;;;;;;;;;;;;;;;;;5084486;28;19909;-84
2022/02/24 06:36:59;;;;;;;;;;;;;;;;;;5084737;28;20348;-84
2022/02/24 06:39:25;;;;;;;;;;;;;;;;;;5084253;28;19909;-84
2022/02/24 06:41:50;;;;;;;;;;;;;;;;;;5084495;28;19912;-84
2022/02/24 06:44:15;;;;;;;;;;;;;;;;;;5084430;28;19917;-84
2022/02/24 06:46:40;;;;;;;;;;;;;;;;;;5084098;28;19939;-84
2022/02/24 06:49:05;;;;;;;;;;;;;;;;;;5051474;28;19962;-84
2022/02/24 06:51:30;;;;;;;;;;;;;;;;;;5090891;28;19920;-83
2022/02/24 06:53:56;;;;;;;;;;;;;;;;;;5082522;28;19916;-84
2022/02/24 06:56:21;;;;;;;;;;;;;;;;;;5091169;28;19912;-85
2022/02/24 06:58:49;;;;;;;;;;;;;;;;;;5091990;28;19965;-85
2022/02/24 07:01:14;;;;;;;;;;;;;;;;;;5085203;28;19919;-84
2022/02/24 07:03:39;;;;;;;;;;;;;;;;;;5079335;28;19966;-84
2022/02/24 07:06:04;;;;;;;;;;;;;;;;;;5091277;28;19908;-85
2022/02/24 07:08:29;;;;;;;;;;;;;;;;;;5095583;28;20002;-85
2022/02/24 07:10:54;;;;;;;;;;;;;;;;;;5094710;28;19908;-85
2022/02/24 07:13:20;;;;;;;;;;;;;;;;;;5086911;28;19911;-84
2022/02/24 07:15:45;;;;;;;;;;;;;;;;;;5096707;28;19954;-85
2022/02/24 07:18:10;;;;;;;;;;;;;;;;;;5088769;28;20360;-84
2022/02/24 07:20:35;;;;;;;;;;;;;;;;;;5083615;28;20025;-84
2022/02/24 07:23:00;;;;;;;;;;;;;;;;;;5092985;27;20042;-84
2022/02/24 07:25:25;;;;;;;;;;;;;;;;;;5088670;28;20038;-85
2022/02/24 07:27:50;;;;;;;;;;;;;;;;;;5056230;28;20357;-85
2022/02/24 07:30:16;;;;;;;;;;;;;;;;;;5090077;28;19909;-84
2022/02/24 07:32:41;;;;;;;;;;;;;;;;;;5094825;28;19912;-85
2022/02/24 07:35:06;;;;;;;;;;;;;;;;;;5095177;28;20334;-85
2022/02/24 07:37:31;;;;;;;;;;;;;;;;;;5095235;28;20367;-85
2022/02/24 07:39:56;;;;;;;;;;;;;;;;;;5094960;28;19966;-85
2022/02/24 07:42:21;;;;;;;;;;;;;;;;;;5094996;28;20371;-84
2022/02/24 07:44:46;;;;;;;;;;;;;;;;;;5094944;28;20356;-84
2022/02/24 07:47:12;;;;;;;;;;;;;;;;;;5082840;28;19919;-85
2022/02/24 07:49:37;;;;;;;;;;;;;;;;;;5110707;27;20284;-85
2022/02/24 07:52:02;;;;;;;;;;;;;;;;;;5084750;28;19936;-84
2022/02/24 07:54:27;;;;;;;;;;;;;;;;;;5074492;28;19916;-84
2022/02/24 07:56:52;;;;;;;;;;;;;;;;;;5075505;28;19912;-85
2022/02/24 07:59:17;;;;;;;;;;;;;;;;;;5074424;28;19909;-85
2022/02/24 08:01:42;;;;;;;;;;;;;;;;;;5075715;28;19912;-85
2022/02/24 08:04:07;;;;;;;;;;;;;;;;;;5074462;28;19909;-85
2022/02/24 08:06:33;;;;;;;;;;;;;;;;;;5074315;28;20004;-85
2022/02/24 08:08:58;;;;;;;;;;;;;;;;;;5074207;28;20007;-85
2022/02/24 08:11:23;;;;;;;;;;;;;;;;;;5074896;28;19922;-85
2022/02/24 08:13:48;;;;;;;;;;;;;;;;;;5077008;28;20373;-85
2022/02/24 08:16:13;;;;;;;;;;;;;;;;;;5078449;28;20279;-85
2022/02/24 08:18:38;;;;;;;;;;;;;;;;;;5068835;28;19919;-85
2022/02/24 08:21:03;;;;;;;;;;;;;;;;;;5073253;28;19959;-85
2022/02/24 08:23:28;;;;;;;;;;;;;;;;;;5073874;28;20364;-85
2022/02/24 08:25:54;;;;;;;;;;;;;;;;;;5073896;28;19913;-85
2022/02/24 08:28:19;;;;;;;;;;;;;;;;;;5084615;28;19912;-85
2022/02/24 08:30:44;;;;;;;;;;;;;;;;;;5075656;28;20021;-85
2022/02/24 08:33:09;;;;;;;;;;;;;;;;;;5074616;28;19916;-85
2022/02/24 08:35:36;;;;;;;;;;;;;;;;;;5086762;28;19912;-85
2022/02/24 08:38:01;;;;;;;;;;;;;;;;;;5085874;28;20410;-85
2022/02/24 08:40:27;;;;;;;;;;;;;;;;;;5073274;28;19916;-85
2022/02/24 08:42:53;;;;;;;;;;;;;;;;;;5073447;28;20383;-86
2022/02/24 08:45:18;;;;;;;;;;;;;;;;;;5073521;28;20372;-85
2022/02/24 08:47:43;;;;;;;;;;;;;;;;;;5073372;28;19908;-85
2022/02/24 08:50:08;;;;;;;;;;;;;;;;;;5072898;28;19919;-85
2022/02/24 08:52:33;;;;;;;;;;;;;;;;;;5072697;28;19909;-85
2022/02/24 08:54:58;;;;;;;;;;;;;;;;;;5072498;28;19908;-85
2022/02/24 08:57:23;;;;;;;;;;;;;;;;;;5072657;28;19912;-85
2022/02/24 08:59:49;;;;;;;;;;;;;;;;;;5072608;28;19909;-85
2022/02/24 09:02:14;;;;;;;;;;;;;;;;;;5073060;28;19912;-85
2022/02/24 09:04:39;;;;;;;;;;;;;;;;;;5072866;28;20276;-85
2022/02/24 09:07:04;;;;;;;;;;;;;;;;;;5072602;28;19908;-85
2022/02/24 09:09:29;;;;;;;;;;;;;;;;;;5072752;28;19965;-85
2022/02/24 09:11:54;;;;;;;;;;;;;;;;;;5072592;28;19954;-85
2022/02/24 09:14:19;;;;;;;;;;;;;;;;;;5072745;28;19915;-85
2022/02/24 09:16:44;;;;;;;;;;;;;;;;;;5073898;28;20280;-86
2022/02/24 09:19:10;;;;;;;;;;;;;;;;;;5072740;28;20356;-85
2022/02/24 09:21:35;;;;;;;;;;;;;;;;;;5072340;28;19920;-85
2022/02/24 09:24:00;;;;;;;;;;;;;;;;;;5074143;28;20393;-85
2022/02/24 09:26:25;;;;;;;;;;;;;;;;;;5072630;28;19921;-85
2022/02/24 09:28:50;;;;;;;;;;;;;;;;;;5072425;28;19908;-85
2022/02/24 09:31:15;;;;;;;;;;;;;;;;;;5074186;28;19920;-86
2022/02/24 09:33:41;;;;;;;;;;;;;;;;;;5073638;28;19912;-85
2022/02/24 09:36:06;;;;;;;;;;;;;;;;;;5075996;28;19965;-85
2022/02/24 09:38:31;;;;;;;;;;;;;;;;;;5083723;28;19912;-85
2022/02/24 09:40:56;;;;;;;;;;;;;;;;;;5126731;27;19923;-85
2022/02/24 09:43:31;;;;;;;;;;;;;;;;;;5108138;27;21535;-85
2022/02/24 09:45:57;;;;;;;;;;;;;;;;;;5092575;28;19908;-85
2022/02/24 09:48:27;;;;;;;;;;;;;;;;;;5092558;28;19909;-85
2022/02/24 09:50:52;;;;;;;;;;;;;;;;;;5086776;28;19912;-85
2022/02/24 09:53:18;;;;;;;;;;;;;;;;;;5084697;28;19961;-86
2022/02/24 09:55:43;;;;;;;;;;;;;;;;;;5118312;28;20363;-85
2022/02/24 09:58:08;;;;;;;;;;;;;;;;;;5090713;28;19915;-83
2022/02/24 10:00:33;;;;;;;;;;;;;;;;;;5120887;28;19920;-85
2022/02/24 10:02:58;;;;;;;;;;;;;;;;;;5077089;28;19923;-85
2022/02/24 10:05:23;;;;;;;;;;;;;;;;;;5091612;28;19913;-89
2022/02/24 10:07:49;;;;;;;;;;;;;;;;;;5092219;28;20378;-89
2022/02/24 10:10:14;;;;;;;;;;;;;;;;;;5090521;28;20291;-88
2022/02/24 10:12:39;;;;;;;;;;;;;;;;;;5081036;28;19912;-91
2022/02/24 10:15:04;;;;;;;;;;;;;;;;;;5088495;28;19947;-88
2022/02/24 10:17:29;;;;;;;;;;;;;;;;;;5085888;28;19912;-89
2022/02/24 10:19:54;;;;;;;;;;;;;;;;;;5092118;28;19916;-89
2022/02/24 10:22:19;;;;;;;;;;;;;;;;;;5126311;28;20417;-91
2022/02/24 10:24:45;;;;;;;;;;;;;;;;;;5109911;28;19908;-80
2022/02/24 10:27:10;;;;;;;;;;;;;;;;;;5073318;28;19909;-79
2022/02/24 10:29:35;;;;;;;;;;;;;;;;;;5072138;28;19967;-79
2022/02/24 10:32:00;;;;;;;;;;;;;;;;;;5072248;28;20440;-80
2022/02/24 10:34:25;;;;;;;;;;;;;;;;;;5074322;28;19912;-79
2022/02/24 10:36:50;;;;;;;;;;;;;;;;;;5090514;28;19908;-82
2022/02/24 10:39:21;;;;;;;;;;;;;;;;;;5128862;27;20010;-82
2022/02/24 10:41:46;;;;;;;;;;;;;;;;;;5121312;27;19916;-82
2022/02/24 10:44:11;;;;;;;;;;;;;;;;;;5084942;28;19912;-82
2022/02/24 10:46:36;;;;;;;;;;;;;;;;;;5095187;28;20252;-82
2022/02/24 10:49:02;;;;;;;;;;;;;;;;;;5082599;28;19919;-82
2022/02/24 10:51:28;;;;;;;;;;;;;;;;;;5074354;28;19962;-82
2022/02/24 10:53:53;;;;;;;;;;;;;;;;;;5075213;28;20389;-82
2022/02/24 10:56:18;;;;;;;;;;;;;;;;;;5086950;28;20430;-82
2022/02/24 10:58:44;;;;;;;;;;;;;;;;;;5089474;28;19963;-82
2022/02/24 11:01:09;;;;;;;;;;;;;;;;;;5073444;28;19969;-82
2022/02/24 11:03:34;;;;;;;;;;;;;;;;;;5073640;28;20348;-82
2022/02/24 11:05:59;;;;;;;;;;;;;;;;;;5075572;28;19909;-82
2022/02/24 11:08:24;;;;;;;;;;;;;;;;;;5075253;28;19913;-82
2022/02/24 11:10:49;;;;;;;;;;;;;;;;;;5074837;28;19914;-82
2022/02/24 11:13:14;;;;;;;;;;;;;;;;;;5084863;28;19912;-81
2022/02/24 11:15:39;;;;;;;;;;;;;;;;;;5074864;28;19915;-81
2022/02/24 11:18:04;;;;;;;;;;;;;;;;;;5075787;28;19958;-81
2022/02/24 11:20:29;;;;;;;;;;;;;;;;;;5120132;27;20321;-81
2022/02/24 11:22:55;;;;;;;;;;;;;;;;;;5108734;28;19938;-81
2022/02/24 11:25:20;;;;;;;;;;;;;;;;;;5111727;27;19995;-81
2022/02/24 11:27:46;;;;;;;;;;;;;;;;;;5085222;28;20002;-81
2022/02/24 11:30:12;;;;;;;;;;;;;;;;;;5129130;27;19916;-81
2022/02/24 11:32:37;;;;;;;;;;;;;;;;;;5124317;27;19920;-81
2022/02/24 11:35:06;;;;;;;;;;;;;;;;;;5091257;28;20167;-81
2022/02/24 11:37:31;;;;;;;;;;;;;;;;;;5094434;28;19916;-81
2022/02/24 11:39:56;;;;;;;;;;;;;;;;;;5094841;28;19912;-81
2022/02/24 11:42:21;;;;;;;;;;;;;;;;;;5094635;28;19919;-81
2022/02/24 11:44:47;;;;;;;;;;;;;;;;;;5092969;28;19913;-81
2022/02/24 11:47:12;;;;;;;;;;;;;;;;;;5080744;28;20378;-81
2022/02/24 11:49:37;;;;;;;;;;;;;;;;;;5094829;28;19965;-81
2022/02/24 11:52:02;;;;;;;;;;;;;;;;;;5092552;28;19919;-81
2022/02/24 11:54:27;;;;;;;;;;;;;;;;;;5108383;28;19923;-81
2022/02/24 11:56:52;;;;;;;;;;;;;;;;;;5105654;27;19954;-81
2022/02/24 11:59:17;;;;;;;;;;;;;;;;;;5108328;28;19978;-81
2022/02/24 12:01:47;;;;;;;;;;;;;;;;;;5107051;28;19943;-81
2022/02/24 12:04:12;;;;;;;;;;;;;;;;;;5108199;28;19912;-81
2022/02/24 12:06:37;;;;;;;;;;;;;;;;;;5102113;28;19909;-81
2022/02/24 12:09:02;;;;;;;;;;;;;;;;;;5098080;27;19916;-81
2022/02/24 12:11:28;;;;;;;;;;;;;;;;;;5074248;28;19908;-81
2022/02/24 12:13:53;;;;;;;;;;;;;;;;;;5113199;27;19963;-81
2022/02/24 12:16:22;;;;;;;;;;;;;;;;;;5077576;28;19966;-81
2022/02/24 12:18:47;;;;;;;;;;;;;;;;;;5074488;28;19962;-81
2022/02/24 12:21:12;;;;;;;;;;;;;;;;;;5106758;28;19924;-82
2022/02/24 12:23:37;;;;;;;;;;;;;;;;;;5074952;28;19909;-82
2022/02/24 12:26:02;;;;;;;;;;;;;;;;;;5101944;27;19912;-81
2022/02/24 12:28:27;;;;;;;;;;;;;;;;;;5100235;27;19920;-81
2022/02/24 12:30:52;;;;;;;;;;;;;;;;;;5098856;28;19920;-81
2022/02/24 12:33:18;;;;;;;;;;;;;;;;;;5089738;28;20645;-81
2022/02/24 12:35:43;;;;;;;;;;;;;;;;;;5094887;28;19916;-81
2022/02/24 12:38:09;;;;;;;;;;;;;;;;;;5093305;28;19916;-81
2022/02/24 12:40:34;;;;;;;;;;;;;;;;;;5091737;28;19920;-80
2022/02/24 12:43:00;;;;;;;;;;;;;;;;;;5082557;28;19920;-81
2022/02/24 12:45:25;;;;;;;;;;;;;;;;;;5079201;28;19936;-81
2022/02/24 12:47:51;;;;;;;;;;;;;;;;;;5090451;28;19955;-81
2022/02/24 12:50:16;;;;;;;;;;;;;;;;;;5075328;28;19918;-81
2022/02/24 12:52:42;;;;;;;;;;;;;;;;;;5087808;28;19994;-81
2022/02/24 12:55:07;;;;;;;;;;;;;;;;;;5078677;28;19957;-82
2022/02/24 12:57:32;;;;;;;;;;;;;;;;;;5073300;28;19973;-81
2022/02/24 12:59:57;;;;;;;;;;;;;;;;;;5074028;28;20008;-81
2022/02/24 13:02:22;;;;;;;;;;;;;;;;;;5072786;28;19917;-81
2022/02/24 13:04:47;;;;;;;;;;;;;;;;;;5072882;28;20352;-81
2022/02/24 13:09:42;;;;;;;;;;;;;;;;;;5073791;28;19912;-81
2022/02/24 13:09:58;;;;;;;;;;;;;;;;;;5073960;28;20378;-81
2022/02/24 13:12:23;;;;;;;;;;;;;;;;;;5089856;28;20002;-81
2022/02/24 13:14:49;;;;;;;;;;;;;;;;;;5092514;28;20014;-81
2022/02/24 13:17:14;;;;;;;;;;;;;;;;;;5086182;28;19931;-81
2022/02/24 13:19:39;;;;;;;;;;;;;;;;;;5092601;28;19912;-83
2022/02/24 13:22:05;;;;;;;;;;;;;;;;;;5127041;27;19912;-81
2022/02/24 13:24:31;;;;;;;;;;;;;;;;;;5108518;27;19956;-81
2022/02/24 13:26:56;;;;;;;;;;;;;;;;;;5074434;28;19912;-81
2022/02/24 13:29:22;;;;;;;;;;;;;;;;;;5071503;28;20279;-81
2022/02/24 13:31:47;;;;;;;;;;;;;;;;;;5072584;28;19911;-81
2022/02/24 13:34:12;;;;;;;;;;;;;;;;;;5072665;28;19913;-81
2022/02/24 13:36:37;;;;;;;;;;;;;;;;;;5072682;28;19904;-81
2022/02/24 13:39:02;;;;;;;;;;;;;;;;;;5073750;28;19973;-81
2022/02/24 13:41:28;;;;;;;;;;;;;;;;;;5072294;28;19917;-82
2022/02/24 13:43:53;;;;;;;;;;;;;;;;;;5070995;28;19913;-82
2022/02/24 13:46:18;;;;;;;;;;;;;;;;;;5072119;28;19955;-82
2022/02/24 13:48:43;;;;;;;;;;;;;;;;;;5072308;28;19913;-82
2022/02/24 13:51:08;;;;;;;;;;;;;;;;;;5076345;28;20031;-82
2022/02/24 13:53:35;;;;;;;;;;;;;;;;;;5077872;28;19917;-82
2022/02/24 13:56:01;;;;;;;;;;;;;;;;;;5124457;27;19908;-81
2022/02/24 13:58:26;;;;;;;;;;;;;;;;;;5098791;28;20007;-81
2022/02/24 14:00:51;;;;;;;;;;;;;;;;;;5071832;28;20348;-82
2022/02/24 14:03:17;;;;;;;;;;;;;;;;;;5070430;28;19919;-82
2022/02/24 14:05:42;;;;;;;;;;;;;;;;;;5071663;28;19908;-82
2022/02/24 14:08:07;;;;;;;;;;;;;;;;;;5069839;28;19935;-82
2022/02/24 14:10:33;;;;;;;;;;;;;;;;;;5073380;28;20382;-82
2022/02/24 14:12:58;;;;;;;;;;;;;;;;;;5075918;28;19915;-82
2022/02/24 14:15:23;;;;;;;;;;;;;;;;;;5074505;28;19909;-82
2022/02/24 14:17:48;;;;;;;;;;;;;;;;;;5073986;28;19912;-82
2022/02/24 14:20:13;;;;;;;;;;;;;;;;;;5074710;28;20127;-82
2022/02/24 14:22:38;;;;;;;;;;;;;;;;;;5074531;28;20272;-82
2022/02/24 14:25:03;;;;;;;;;;;;;;;;;;5074483;28;19912;-82
2022/02/24 14:27:29;;;;;;;;;;;;;;;;;;5068041;28;19956;-82
2022/02/24 14:29:54;;;;;;;;;;;;;;;;;;5109556;28;20022;-82
2022/02/24 14:32:19;;;;;;;;;;;;;;;;;;5109822;28;19971;-82
2022/02/24 14:34:44;;;;;;;;;;;;;;;;;;5124502;27;20378;-82
2022/02/24 14:37:10;;;;;;;;;;;;;;;;;;5109844;28;19916;-82
2022/02/24 14:39:35;;;;;;;;;;;;;;;;;;5090160;28;19965;-82
2022/02/24 14:42:00;;;;;;;;;;;;;;;;;;5129555;27;19912;-81
2022/02/24 14:44:25;;;;;;;;;;;;;;;;;;5092707;28;19965;-81
2022/02/24 14:46:50;;;;;;;;;;;;;;;;;;5129875;27;19908;-82
2022/02/24 14:49:16;;;;;;;;;;;;;;;;;;5130175;27;19908;-81
2022/02/24 14:51:41;;;;;;;;;;;;;;;;;;5129785;27;19912;-82
2022/02/24 14:54:06;;;;;;;;;;;;;;;;;;5129934;27;19912;-82
2022/02/24 14:56:31;;;;;;;;;;;;;;;;;;5129933;27;20480;-81
2022/02/24 14:58:56;;;;;;;;;;;;;;;;;;5129911;27;19908;-82
2022/02/24 15:01:21;;;;;;;;;;;;;;;;;;5113202;27;20318;-81
2022/02/24 15:03:46;;;;;;;;;;;;;;;;;;5109216;28;19947;-81
2022/02/24 15:06:11;;;;;;;;;;;;;;;;;;5109218;28;19916;-82
2022/02/24 15:08:37;;;;;;;;;;;;;;;;;;5110000;27;19927;-81
2022/02/24 15:11:02;;;;;;;;;;;;;;;;;;5090798;28;20265;-81
2022/02/24 15:13:27;;;;;;;;;;;;;;;;;;5088784;28;19909;-81
2022/02/24 15:15:52;;;;;;;;;;;;;;;;;;5100909;28;20360;-81
2022/02/24 15:18:22;;;;;;;;;;;;;;;;;;5108856;28;19909;-81
2022/02/24 15:20:49;;;;;;;;;;;;;;;;;;5106993;28;19912;-81
2022/02/24 15:23:15;;;;;;;;;;;;;;;;;;5086945;28;20367;-82
2022/02/24 15:25:40;;;;;;;;;;;;;;;;;;5083782;28;19912;-81
2022/02/24 15:28:05;;;;;;;;;;;;;;;;;;5094373;28;19912;-81
2022/02/24 15:30:31;;;;;;;;;;;;;;;;;;5081278;28;19917;-81
2022/02/24 15:32:56;;;;;;;;;;;;;;;;;;5128947;27;20378;-81
2022/02/24 15:35:21;;;;;;;;;;;;;;;;;;5117587;27;20006;-81
2022/02/24 15:37:46;;;;;;;;;;;;;;;;;;5094295;28;20339;-81
2022/02/24 15:40:12;;;;;;;;;;;;;;;;;;5092872;28;19964;-82
2022/02/24 15:42:37;;;;;;;;;;;;;;;;;;5076263;28;19978;-81
2022/02/24 15:45:03;;;;;;;;;;;;;;;;;;5074628;28;20337;-82
2022/02/24 15:47:28;;;;;;;;;;;;;;;;;;5074234;28;20007;-81
2022/02/24 15:49:54;;;;;;;;;;;;;;;;;;5074366;28;19912;-82
2022/02/24 15:52:19;;;;;;;;;;;;;;;;;;5088175;28;19916;-82
2022/02/24 15:54:44;;;;;;;;;;;;;;;;;;5091897;28;19923;-82
2022/02/24 15:57:09;;;;;;;;;;;;;;;;;;5075408;28;19939;-81
2022/02/24 15:59:34;;;;;;;;;;;;;;;;;;5089972;28;19912;-81
2022/02/24 16:02:01;;;;;;;;;;;;;;;;;;5083450;28;19912;-81
2022/02/24 16:04:26;;;;;;;;;;;;;;;;;;5073972;28;19912;-81
2022/02/24 16:06:51;;;;;;;;;;;;;;;;;;5084237;28;19908;-82
2022/02/24 16:09:16;;;;;;;;;;;;;;;;;;5074412;28;20367;-82
2022/02/24 16:11:41;;;;;;;;;;;;;;;;;;5074058;28;19916;-82
2022/02/24 16:14:07;;;;;;;;;;;;;;;;;;5073518;28;19915;-81
2022/02/24 16:16:32;;;;;;;;;;;;;;;;;;5073492;28;19958;-81
2022/02/24 16:18:57;;;;;;;;;;;;;;;;;;5075039;28;19908;-82
2022/02/24 16:21:22;;;;;;;;;;;;;;;;;;5073439;28;19919;-82
2022/02/24 16:23:47;;;;;;;;;;;;;;;;;;5078176;28;20720;-82
2022/02/24 16:26:13;;;;;;;;;;;;;;;;;;5090201;28;19986;-82
2022/02/24 16:28:38;;;;;;;;;;;;;;;;;;5073475;28;19972;-82
2022/02/24 16:31:03;;;;;;;;;;;;;;;;;;5073407;28;19908;-82